Time;durP1;ratioP1;P1;durP2;ratioP2;P2;SDS_P1;SDS_P2;PMS_P1;PMS_P2;Temp;Humidity;BMP_temperature;BMP_pressure;BME280_temperature;BME280_humidity;BME280_pressure;Samples;Min_cycle;Max_cycle;Signal;HPM_P1;HPM_P2
2023/01/03 00:00:35;;;;;;;12.00;9.20;;;9.50;99.90;;;;;;5033624;28;20420;-37
2023/01/03 00:03:01;;;;;;;10.97;8.57;;;9.50;99.90;;;;;;5049066;28;20439;-40
2023/01/03 00:05:26;;;;;;;13.03;8.87;;;9.40;99.90;;;;;;5047337;28;20440;-38
2023/01/03 00:07:52;;;;;;;12.33;7.40;;;9.40;99.90;;;;;;5041454;28;20311;-37
2023/01/03 00:10:18;;;;;;;8.90;6.87;;;9.40;99.90;;;;;;5032709;28;20187;-38
2023/01/03 00:12:44;;;;;;;9.20;7.07;;;9.30;99.90;;;;;;5028274;28;20649;-38
2023/01/03 00:15:10;;;;;;;10.07;6.70;;;9.30;99.90;;;;;;5029122;28;20201;-39
2023/01/03 00:17:35;;;;;;;8.13;6.30;;;9.30;99.90;;;;;;5039231;28;20213;-38
2023/01/03 00:20:01;;;;;;;10.43;6.97;;;8.90;99.90;;;;;;5032594;28;20468;-38
2023/01/03 00:22:30;;;;;;;9.67;7.20;;;9.30;99.90;;;;;;5029511;28;20623;-39
2023/01/03 00:24:56;;;;;;;10.43;6.10;;;9.30;99.90;;;;;;5027329;28;20198;-39
2023/01/03 00:27:22;;;;;;;9.20;6.10;;;9.30;99.90;;;;;;5029740;28;20432;-41
2023/01/03 00:29:48;;;;;;;9.60;6.80;;;9.30;99.90;;;;;;5029395;28;20258;-39
2023/01/03 00:32:13;;;;;;;9.43;6.40;;;9.20;99.90;;;;;;5029519;28;20221;-38
2023/01/03 00:34:41;;;;;;;6.53;5.60;;;9.20;99.90;;;;;;5028651;28;20229;-37
2023/01/03 00:37:07;;;;;;;7.30;5.77;;;9.20;99.90;;;;;;5029495;28;20187;-38
2023/01/03 00:39:33;;;;;;;11.50;5.60;;;9.20;99.90;;;;;;5029026;28;21119;-39
2023/01/03 00:41:58;;;;;;;5.97;4.53;;;9.10;99.90;;;;;;5029632;28;20190;-40
2023/01/03 00:44:24;;;;;;;8.17;4.70;;;9.10;99.90;;;;;;5032353;28;20332;-37
2023/01/03 00:46:50;;;;;;;8.70;5.13;;;9.10;99.90;;;;;;5033051;28;20205;-39
2023/01/03 00:49:15;;;;;;;5.40;4.73;;;9.10;99.90;;;;;;5032682;28;20222;-41
2023/01/03 00:51:42;;;;;;;6.57;4.40;;;9.10;99.90;;;;;;5032886;28;20198;-37
2023/01/03 00:54:10;;;;;;;6.60;4.50;;;9.00;99.90;;;;;;5031896;28;20312;-39
2023/01/03 00:56:39;;;;;;;5.63;4.53;;;9.00;99.90;;;;;;5043162;28;20424;-38
2023/01/03 00:59:06;;;;;;;5.40;4.10;;;9.00;99.90;;;;;;5051036;28;20440;-35
2023/01/03 01:01:38;;;;;;;6.33;4.60;;;9.00;99.90;;;;;;5052598;28;20432;-38
2023/01/03 01:04:13;;;;;;;5.00;4.13;;;8.90;99.90;;;;;;5051830;28;20448;-33
2023/01/03 01:06:42;;;;;;;7.07;5.00;;;9.00;99.90;;;;;;5051366;28;21005;-40
2023/01/03 01:09:11;;;;;;;5.20;3.63;;;8.90;99.90;;;;;;5052441;28;20517;-39
2023/01/03 01:11:38;;;;;;;7.10;4.17;;;8.90;99.90;;;;;;5052275;28;20516;-38
2023/01/03 01:14:18;;;;;;;8.97;4.60;;;8.90;99.90;;;;;;5051847;28;20420;-40
2023/01/03 01:16:54;;;;;;;5.27;3.70;;;8.90;99.90;;;;;;5049764;28;20420;-38
2023/01/03 01:19:26;;;;;;;4.83;3.93;;;8.90;99.90;;;;;;5032938;28;20433;-40
2023/01/03 01:21:52;;;;;;;7.00;4.30;;;8.80;99.90;;;;;;5034138;28;20908;-36
2023/01/03 01:24:18;;;;;;;7.00;3.97;;;8.90;99.90;;;;;;5031669;28;20436;-37
2023/01/03 01:26:45;;;;;;;6.87;4.17;;;8.90;99.90;;;;;;5033394;28;20281;-41
2023/01/03 01:29:11;;;;;;;4.97;4.53;;;8.80;99.90;;;;;;5032210;28;20547;-41
2023/01/03 01:31:37;;;;;;;6.57;4.60;;;8.90;99.90;;;;;;5031933;28;20440;-36
2023/01/03 01:34:03;;;;;;;5.40;4.30;;;8.90;99.90;;;;;;5031806;28;20888;-34
2023/01/03 01:36:32;;;;;;;6.63;4.23;;;8.90;99.90;;;;;;5032085;28;20186;-39
2023/01/03 01:39:04;;;;;;;4.63;3.93;;;8.90;99.90;;;;;;5032109;28;20413;-39
2023/01/03 01:44:46;;;;;;;7.17;6.17;;;8.80;99.90;;;;;;5031143;28;20429;-39
2023/01/03 01:47:34;;;;;;;9.10;5.07;;;8.70;99.90;;;;;;5030347;28;20647;-39
2023/01/03 01:50:11;;;;;;;6.97;4.80;;;8.90;99.90;;;;;;5031822;28;20823;-40
2023/01/03 01:52:44;;;;;;;7.60;4.63;;;8.80;99.90;;;;;;5031675;28;20454;-39
2023/01/03 01:55:15;;;;;;;8.57;5.43;;;8.70;99.90;;;;;;5030466;28;20417;-37
2023/01/03 01:57:41;;;;;;;6.63;4.80;;;8.70;99.90;;;;;;5031723;28;20457;-37
2023/01/03 02:00:08;;;;;;;8.17;4.80;;;8.70;99.90;;;;;;5031813;28;20478;-40
2023/01/03 02:02:33;;;;;;;6.30;4.50;;;8.70;99.90;;;;;;5031549;28;20423;-37
2023/01/03 02:05:01;;;;;;;5.30;4.80;;;8.80;99.90;;;;;;5030757;28;20445;-36
2023/01/03 02:07:27;;;;;;;10.07;5.80;;;8.70;99.90;;;;;;5030518;28;20198;-39
2023/01/03 02:09:56;;;;;;;9.90;5.67;;;8.70;99.90;;;;;;5030304;28;20469;-39
2023/01/03 02:15:56;;;;;;;8.27;5.37;;;8.70;99.90;;;;;;5031233;28;20421;-37
2023/01/03 02:19:03;;;;;;;6.03;4.80;;;8.70;99.90;;;;;;5038293;28;20428;-35
2023/01/03 02:21:47;;;;;;;7.57;6.10;;;8.80;99.90;;;;;;5051169;28;20442;-37
2023/01/03 02:24:53;;;;;;;10.40;4.80;;;8.70;99.90;;;;;;5050477;28;20421;-37
2023/01/03 02:27:52;;;;;;;6.43;4.10;;;8.80;99.90;;;;;;5051108;28;20416;-39
2023/01/03 02:30:41;;;;;;;7.70;4.87;;;8.80;99.90;;;;;;5050916;28;20471;-37
2023/01/03 02:33:43;;;;;;;6.70;5.07;;;8.70;99.90;;;;;;5051024;28;20494;-38
2023/01/03 02:36:29;;;;;;;9.70;5.47;;;8.80;99.90;;;;;;5050740;28;20474;-37
2023/01/03 02:39:22;;;;;;;6.93;4.70;;;8.70;99.90;;;;;;5050930;28;20412;-40
2023/01/03 02:45:07;;;;;;;7.77;5.57;;;8.80;99.90;;;;;;5049985;28;20416;-40
2023/01/03 02:47:56;;;;;;;8.47;5.40;;;8.80;99.90;;;;;;5050606;28;20949;-37
2023/01/03 02:50:27;;;;;;;8.80;5.20;;;8.80;99.90;;;;;;5050449;28;20525;-38
2023/01/03 02:52:58;;;;;;;5.83;5.17;;;8.90;99.90;;;;;;5050297;28;21221;-38
2023/01/03 02:55:27;;;;;;;8.93;5.80;;;8.70;99.90;;;;;;5050052;28;20405;-33
2023/01/03 02:58:08;;;;;;;9.87;5.97;;;8.90;99.90;;;;;;5049229;28;20405;-39
2023/01/03 03:00:40;;;;;;;5.63;4.67;;;8.70;99.90;;;;;;5050293;28;20774;-38
2023/01/03 03:03:11;;;;;;;7.90;5.70;;;8.80;99.90;;;;;;5049360;28;20412;-39
2023/01/03 03:05:47;;;;;;;6.63;5.97;;;8.70;99.90;;;;;;5047483;28;20435;-37
2023/01/03 03:08:13;;;;;;;7.13;5.87;;;8.70;99.90;;;;;;5048236;28;20775;-35
2023/01/03 03:13:40;;;;;;;9.97;7.00;;;8.70;99.90;;;;;;5050316;28;20170;-35
2023/01/03 03:16:16;;;;;;;8.30;7.27;;;8.90;99.90;;;;;;5049557;28;20412;-37
2023/01/03 03:19:13;;;;;;;9.97;7.67;;;8.70;99.90;;;;;;5050148;28;20510;-39
2023/01/03 03:30:02;;;;;;;8.03;7.23;;;8.70;99.90;;;;;;5050022;28;20581;-37
2023/01/03 03:32:31;;;;;;;8.90;6.80;;;8.60;99.90;;;;;;5049729;28;20417;-37
2023/01/03 03:35:00;;;;;;;12.30;7.50;;;8.80;99.90;;;;;;5049288;28;20419;-36
2023/01/03 03:37:28;;;;;;;8.40;7.47;;;8.80;99.90;;;;;;5049860;28;20805;-39
2023/01/03 03:46:03;;;;;;;13.43;10.10;;;8.60;99.90;;;;;;5049371;28;20412;-38
2023/01/03 03:51:35;;;;;;;12.73;10.07;;;8.60;99.90;;;;;;5049873;28;20511;-37
2023/01/03 03:54:06;;;;;;;16.40;11.57;;;8.50;99.90;;;;;;5049261;28;20500;-36
2023/01/03 03:56:35;;;;;;;12.30;11.03;;;8.50;99.90;;;;;;5048496;28;20416;-38
2023/01/03 03:59:05;;;;;;;15.53;11.57;;;8.50;99.90;;;;;;5049745;28;20418;-40
2023/01/03 04:01:32;;;;;;;16.10;12.13;;;8.50;99.90;;;;;;5049653;28;20413;-40
2023/01/03 04:04:09;;;;;;;14.60;12.70;;;8.40;99.90;;;;;;5048991;28;20524;-37
2023/01/03 04:06:44;;;;;;;15.20;11.97;;;8.50;99.90;;;;;;5048691;28;20478;-40
2023/01/03 04:09:10;;;;;;;13.20;11.30;;;8.50;99.90;;;;;;5049572;28;20455;-38
2023/01/03 04:11:36;;;;;;;12.93;10.77;;;8.50;99.90;;;;;;5049892;28;20474;-37
2023/01/03 04:14:01;;;;;;;13.90;11.50;;;8.40;99.90;;;;;;5048930;28;20425;-35
2023/01/03 04:16:27;;;;;;;14.43;10.30;;;8.50;99.90;;;;;;5049821;28;20212;-38
2023/01/03 04:18:52;;;;;;;11.97;10.10;;;8.40;99.90;;;;;;5053070;28;20649;-35
2023/01/03 04:21:18;;;;;;;13.23;10.03;;;8.50;99.90;;;;;;5053570;28;20323;-35
2023/01/03 04:23:44;;;;;;;11.03;9.93;;;8.50;99.90;;;;;;5052962;28;20223;-39
2023/01/03 04:26:09;;;;;;;16.40;10.97;;;8.50;99.90;;;;;;5053385;28;20212;-38
2023/01/03 04:28:35;;;;;;;12.37;9.73;;;8.50;99.90;;;;;;5053117;28;20276;-35
2023/01/03 04:31:01;;;;;;;11.53;10.23;;;8.40;99.90;;;;;;5053334;28;20238;-37
2023/01/03 04:33:26;;;;;;;13.53;9.70;;;8.40;99.90;;;;;;5053323;28;20261;-37
2023/01/03 04:35:52;;;;;;;15.63;10.37;;;8.40;99.90;;;;;;5052552;28;20170;-38
2023/01/03 04:38:17;;;;;;;9.77;8.37;;;8.60;99.90;;;;;;5053281;28;20178;-38
2023/01/03 04:40:43;;;;;;;11.53;8.57;;;8.30;99.90;;;;;;5053042;28;20185;-39
2023/01/03 04:45:54;;;;;;;9.97;8.07;;;8.40;99.90;;;;;;5052438;28;20525;-40
2023/01/03 04:48:20;;;;;;;8.97;8.03;;;8.40;99.90;;;;;;5053037;28;20438;-37
2023/01/03 04:50:53;;;;;;;8.93;8.00;;;8.50;99.90;;;;;;5052934;28;20539;-41
2023/01/03 04:53:19;;;;;;;11.23;8.20;;;8.50;99.90;;;;;;5053227;28;20220;-40
2023/01/03 04:55:49;;;;;;;11.30;8.37;;;8.60;99.90;;;;;;5051778;28;20404;-37
2023/01/03 04:58:15;;;;;;;10.87;8.63;;;8.50;99.90;;;;;;5051522;28;20425;-40
2023/01/03 05:00:41;;;;;;;9.80;7.40;;;8.50;99.90;;;;;;5052664;28;21238;-34
2023/01/03 05:03:06;;;;;;;9.77;8.27;;;8.60;99.90;;;;;;5051492;28;20496;-37
2023/01/03 05:05:35;;;;;;;12.70;8.80;;;8.50;99.90;;;;;;5050967;28;20208;-36
2023/01/03 05:08:07;;;;;;;12.97;8.83;;;8.50;99.90;;;;;;5052647;28;20308;-37
2023/01/03 05:10:32;;;;;;;10.70;7.23;;;8.50;99.90;;;;;;5052314;28;20471;-36
2023/01/03 05:12:59;;;;;;;9.00;7.20;;;8.50;99.90;;;;;;5052473;28;20428;-36
2023/01/03 05:15:29;;;;;;;14.40;8.00;;;8.50;99.90;;;;;;5051966;28;20521;-34
2023/01/03 05:17:56;;;;;;;7.50;6.77;;;8.50;99.90;;;;;;5052505;28;20405;-37
2023/01/03 05:25:56;;;;;;;7.07;5.80;;;8.40;99.90;;;;;;5051753;28;20760;-39
2023/01/03 05:28:23;;;;;;;9.43;6.30;;;8.30;99.90;;;;;;5051414;28;20412;-35
2023/01/03 05:30:48;;;;;;;11.40;7.30;;;8.30;99.90;;;;;;5051524;28;20440;-38
2023/01/03 05:33:14;;;;;;;11.07;6.47;;;8.40;99.90;;;;;;5051720;28;20436;-37
2023/01/03 05:35:40;;;;;;;9.23;6.63;;;8.40;99.90;;;;;;5051381;28;20865;-35
2023/01/03 05:38:06;;;;;;;6.43;5.30;;;8.30;99.90;;;;;;5052082;28;20417;-34
2023/01/03 05:40:31;;;;;;;7.93;6.10;;;8.30;99.90;;;;;;5052111;28;20794;-38
2023/01/03 05:42:57;;;;;;;10.70;6.40;;;8.30;99.90;;;;;;5051924;28;20216;-35
2023/01/03 05:45:26;;;;;;;7.30;5.60;;;8.20;99.90;;;;;;5051349;28;20760;-36
2023/01/03 05:47:51;;;;;;;8.10;5.67;;;8.10;99.90;;;;;;5051616;28;20186;-37
2023/01/03 05:50:17;;;;;;;8.93;5.97;;;8.20;99.90;;;;;;5051746;28;20938;-40
2023/01/03 05:52:43;;;;;;;8.30;5.57;;;8.30;99.90;;;;;;5051684;28;20632;-39
2023/01/03 05:55:09;;;;;;;7.37;5.70;;;8.10;99.90;;;;;;5051185;28;20432;-40
2023/01/03 05:57:34;;;;;;;9.40;5.60;;;8.10;99.90;;;;;;5050357;28;20212;-39
2023/01/03 06:00:00;;;;;;;6.20;5.10;;;8.10;99.90;;;;;;5051550;28;20307;-39
2023/01/03 06:02:27;;;;;;;9.23;6.03;;;8.00;99.90;;;;;;5048961;28;20221;-39
2023/01/03 06:04:53;;;;;;;8.70;5.80;;;7.90;99.90;;;;;;5046138;28;20193;-38
2023/01/03 06:07:18;;;;;;;5.90;4.97;;;8.30;99.90;;;;;;5049110;28;20420;-37
2023/01/03 06:09:44;;;;;;;8.60;5.40;;;8.20;99.90;;;;;;5050959;28;20213;-38
2023/01/03 06:12:09;;;;;;;8.67;5.20;;;8.00;99.90;;;;;;5049516;28;20273;-38
2023/01/03 06:14:35;;;;;;;6.20;5.43;;;8.00;99.90;;;;;;5049108;28;20236;-33
2023/01/03 06:19:45;;;;;;;9.67;6.00;;;7.90;99.90;;;;;;5043362;28;20190;-35
2023/01/03 06:22:10;;;;;;;5.30;4.73;;;8.10;99.90;;;;;;5051297;28;20481;-38
2023/01/03 06:24:36;;;;;;;6.80;5.87;;;7.90;99.90;;;;;;5049594;28;20197;-38
2023/01/03 06:27:02;;;;;;;8.27;5.70;;;8.00;99.90;;;;;;5049859;28;20186;-34
2023/01/03 06:29:27;;;;;;;7.60;5.40;;;7.90;99.90;;;;;;5050608;28;20197;-35
2023/01/03 06:31:53;;;;;;;6.30;5.37;;;7.90;99.90;;;;;;5051190;28;20232;-40
2023/01/03 06:34:19;;;;;;;10.30;5.57;;;7.80;99.90;;;;;;5050360;28;20238;-38
2023/01/03 06:36:44;;;;;;;6.87;5.60;;;7.80;99.90;;;;;;5049622;28;20692;-37
2023/01/03 06:39:10;;;;;;;6.57;5.37;;;7.80;99.90;;;;;;5051032;28;20560;-35
2023/01/03 06:41:35;;;;;;;8.03;6.17;;;7.90;99.90;;;;;;5050352;28;20189;-40
2023/01/03 06:44:01;;;;;;;7.70;5.20;;;7.80;99.90;;;;;;5050158;28;20186;-38
2023/01/03 06:54:44;;;;;;;10.33;6.67;;;7.70;99.90;;;;;;5050067;28;20802;-39
2023/01/03 06:57:10;;;;;;;6.77;5.17;;;7.60;99.90;;;;;;5049197;28;20431;-34
2023/01/03 06:59:36;;;;;;;5.83;5.03;;;7.60;99.90;;;;;;5048980;28;20221;-39
2023/01/03 07:02:03;;;;;;;7.30;5.40;;;7.60;99.90;;;;;;5050317;28;20604;-39
2023/01/03 07:04:29;;;;;;;5.90;4.70;;;7.60;99.90;;;;;;5048937;28;20472;-36
2023/01/03 07:06:54;;;;;;;9.97;5.20;;;7.70;99.90;;;;;;5042083;28;20452;-38
2023/01/03 07:09:20;;;;;;;9.63;5.70;;;7.70;99.90;;;;;;5043759;28;20217;-37
2023/01/03 07:11:46;;;;;;;9.80;5.50;;;7.60;99.90;;;;;;5043533;28;20189;-38
2023/01/03 07:14:12;;;;;;;7.47;5.67;;;7.70;99.90;;;;;;5049265;28;20664;-39
2023/01/03 07:16:42;;;;;;;10.10;5.30;;;7.80;99.90;;;;;;5050288;28;20273;-37
2023/01/03 07:19:13;;;;;;;10.30;6.10;;;7.60;99.90;;;;;;5046772;28;20507;-37
2023/01/03 07:21:39;;;;;;;6.23;5.20;;;7.70;99.90;;;;;;5044023;28;20467;-39
2023/01/03 07:24:06;;;;;;;8.77;5.63;;;7.60;99.90;;;;;;5045335;28;20420;-38
2023/01/03 07:26:33;;;;;;;7.13;5.17;;;7.50;99.90;;;;;;5039435;28;20448;-37
2023/01/03 07:29:00;;;;;;;7.83;5.70;;;7.60;99.90;;;;;;5035461;28;20884;-38
2023/01/03 07:31:26;;;;;;;7.47;4.53;;;7.50;99.90;;;;;;5039988;28;20440;-37
2023/01/03 07:33:52;;;;;;;9.70;4.90;;;7.60;99.90;;;;;;5035308;28;20468;-38
2023/01/03 07:36:19;;;;;;;8.83;6.00;;;7.70;99.90;;;;;;5038570;28;20408;-39
2023/01/03 07:38:46;;;;;;;6.73;4.60;;;7.60;99.90;;;;;;5039904;28;20683;-37
2023/01/03 07:41:13;;;;;;;7.27;6.17;;;7.60;99.90;;;;;;5038705;28;20429;-37
2023/01/03 07:43:42;;;;;;;6.67;5.27;;;7.70;99.90;;;;;;5039952;28;20455;-37
2023/01/03 07:46:17;;;;;;;6.67;4.90;;;7.80;99.90;;;;;;5040141;28;20425;-38
2023/01/03 07:48:44;;;;;;;6.10;4.80;;;7.70;99.90;;;;;;5029808;28;20466;-37
2023/01/03 07:51:12;;;;;;;6.17;4.57;;;7.70;99.90;;;;;;5030014;28;20441;-37
2023/01/03 07:53:39;;;;;;;7.50;5.47;;;7.70;99.90;;;;;;5015314;28;20773;-38
2023/01/03 07:56:13;;;;;;;7.10;5.07;;;7.80;99.90;;;;;;5033455;28;20428;-36
2023/01/03 07:58:40;;;;;;;7.80;4.50;;;7.80;99.90;;;;;;5034162;28;21236;-39
2023/01/03 08:01:18;;;;;;;5.10;3.83;;;8.00;99.90;;;;;;5032413;28;21036;-40
2023/01/03 08:03:44;;;;;;;7.53;5.00;;;7.80;99.90;;;;;;5032141;28;20467;-37
2023/01/03 08:06:14;;;;;;;6.13;4.40;;;7.90;99.90;;;;;;5032103;28;20409;-38
2023/01/03 08:08:40;;;;;;;9.40;5.63;;;7.90;99.90;;;;;;5033918;28;20457;-35
2023/01/03 08:13:53;;;;;;;6.83;4.57;;;8.00;99.90;;;;;;5033142;28;20421;-40
2023/01/03 08:16:19;;;;;;;6.67;5.40;;;8.00;99.90;;;;;;5042501;28;20430;-39
2023/01/03 08:18:45;;;;;;;7.80;4.80;;;8.00;99.90;;;;;;5053613;28;20580;-36
2023/01/03 08:21:13;;;;;;;7.87;4.90;;;8.00;99.90;;;;;;5053300;28;20302;-37
2023/01/03 08:23:38;;;;;;;6.23;4.70;;;8.10;99.90;;;;;;5053489;28;20177;-37
2023/01/03 08:26:10;;;;;;;8.93;5.00;;;8.20;99.90;;;;;;5052546;28;20426;-40
2023/01/03 08:28:37;;;;;;;7.53;5.00;;;8.30;99.90;;;;;;5052674;28;20320;-37
2023/01/03 08:31:08;;;;;;;7.10;4.33;;;8.40;99.90;;;;;;5053271;28;20415;-39
2023/01/03 08:33:40;;;;;;;4.70;3.97;;;8.40;99.90;;;;;;5053359;28;20456;-39
2023/01/03 08:36:07;;;;;;;4.93;3.80;;;8.40;99.90;;;;;;5052586;28;20409;-39
2023/01/03 08:38:41;;;;;;;3.83;3.40;;;8.70;99.90;;;;;;5053055;28;20788;-37
2023/01/03 08:41:08;;;;;;;9.37;4.53;;;8.70;99.90;;;;;;5053107;28;20418;-40
2023/01/03 08:43:37;;;;;;;5.30;4.00;;;8.80;99.90;;;;;;5051672;28;20793;-39
2023/01/03 08:46:05;;;;;;;7.70;3.60;;;8.90;99.90;;;;;;5052329;28;20420;-37
2023/01/03 08:48:30;;;;;;;6.87;4.00;;;9.10;99.90;;;;;;5052981;28;20452;-37
2023/01/03 08:50:56;;;;;;;4.27;3.80;;;9.20;99.90;;;;;;5051556;28;20420;-38
2023/01/03 08:53:23;;;;;;;5.93;4.60;;;9.30;99.90;;;;;;5052661;28;20280;-34
2023/01/03 08:55:49;;;;;;;5.77;4.73;;;9.40;99.90;;;;;;5052432;28;20178;-35
2023/01/03 08:58:14;;;;;;;4.53;3.43;;;9.40;99.90;;;;;;5052898;28;20793;-38
2023/01/03 09:00:40;;;;;;;6.57;3.97;;;9.30;99.90;;;;;;5052686;28;20427;-37
2023/01/03 09:03:06;;;;;;;4.40;2.80;;;9.30;99.90;;;;;;5052533;28;20181;-38
2023/01/03 09:05:31;;;;;;;3.93;3.00;;;9.40;99.90;;;;;;5050392;28;20213;-36
2023/01/03 09:07:57;;;;;;;5.63;3.70;;;9.30;99.90;;;;;;5052342;28;20572;-38
2023/01/03 09:10:24;;;;;;;4.73;3.40;;;9.20;99.90;;;;;;5051293;28;20219;-40
2023/01/03 09:12:50;;;;;;;4.63;3.27;;;9.20;99.90;;;;;;5051181;28;20185;-37
2023/01/03 09:15:16;;;;;;;4.90;3.47;;;9.20;99.90;;;;;;5051879;28;20413;-37
2023/01/03 09:17:44;;;;;;;3.20;2.90;;;9.30;99.90;;;;;;5051073;28;20432;-37
2023/01/03 09:20:11;;;;;;;3.43;3.00;;;9.50;99.90;;;;;;5052437;28;20231;-39
2023/01/03 09:22:37;;;;;;;3.70;2.80;;;9.70;99.90;;;;;;5052136;28;20847;-40
2023/01/03 09:25:03;;;;;;;3.57;2.53;;;9.80;99.90;;;;;;5051792;28;20452;-37
2023/01/03 09:27:28;;;;;;;3.80;3.00;;;9.80;99.90;;;;;;5052403;28;20660;-37
2023/01/03 09:29:54;;;;;;;3.63;3.03;;;9.80;99.90;;;;;;5052076;28;20468;-37
2023/01/03 09:32:20;;;;;;;4.50;2.97;;;9.80;99.90;;;;;;5052256;28;20192;-34
2023/01/03 09:34:45;;;;;;;7.30;2.80;;;9.80;99.90;;;;;;5051386;28;20170;-40
2023/01/03 09:37:11;;;;;;;4.60;2.37;;;9.80;99.90;;;;;;5052117;28;20269;-34
2023/01/03 09:39:39;;;;;;;3.80;2.67;;;9.90;99.90;;;;;;5052141;28;20189;-39
2023/01/03 09:44:51;;;;;;;5.07;2.70;;;10.20;99.90;;;;;;5051343;28;20435;-40
2023/01/03 09:47:24;;;;;;;2.30;2.10;;;10.30;99.90;;;;;;5051921;28;20780;-34
2023/01/03 09:49:51;;;;;;;3.10;2.00;;;10.20;99.90;;;;;;5051898;28;20470;-36
2023/01/03 10:04:49;;;;;;;3.17;2.20;;;10.20;99.90;;;;;;5050640;28;20911;-38
2023/01/03 10:07:35;;;;;;;3.37;2.03;;;10.60;99.90;;;;;;5050048;28;20420;-38
2023/01/03 10:10:16;;;;;;;3.77;2.37;;;11.00;99.90;;;;;;5051435;28;20495;-36
2023/01/03 10:12:44;;;;;;;2.90;2.10;;;11.40;99.90;;;;;;5051385;28;20416;-39
2023/01/03 10:15:19;;;;;;;4.50;2.30;;;11.60;99.90;;;;;;5050152;28;20539;-40
2023/01/03 10:18:07;;;;;;;3.10;2.10;;;11.80;99.90;;;;;;5031463;28;20421;-36
2023/01/03 10:20:49;;;;;;;3.93;2.10;;;12.00;99.90;;;;;;5041861;28;20454;-38
2023/01/03 10:23:15;;;;;;;2.67;2.10;;;11.90;99.90;;;;;;5049640;28;20877;-41
2023/01/03 10:25:44;;;;;;;3.83;2.20;;;11.80;99.90;;;;;;5049162;28;20965;-37
2023/01/03 10:28:21;;;;;;;2.20;1.83;;;11.70;99.90;;;;;;5051082;28;20446;-37
2023/01/03 10:31:05;;;;;;;3.20;2.13;;;11.50;99.90;;;;;;5049709;28;20436;-40
2023/01/03 10:33:37;;;;;;;6.60;2.37;;;11.30;99.90;;;;;;5050758;28;21027;-40
2023/01/03 10:36:03;;;;;;;4.60;1.93;;;11.20;99.90;;;;;;5050718;28;20469;-40
2023/01/03 10:38:29;;;;;;;2.60;1.77;;;11.10;99.90;;;;;;5050930;28;20400;-34
2023/01/03 10:41:00;;;;;;;1.77;1.50;;;11.00;99.90;;;;;;5051001;28;21180;-37
2023/01/03 10:43:25;;;;;;;2.23;2.03;;;10.90;99.90;;;;;;5049267;28;20919;-35
2023/01/03 10:46:18;;;;;;;5.00;2.23;;;10.80;99.90;;;;;;5050047;28;20412;-38
2023/01/03 10:48:49;;;;;;;1.87;1.70;;;10.70;99.90;;;;;;5047272;28;20202;-39
2023/01/03 10:51:30;;;;;;;3.13;2.10;;;10.70;99.90;;;;;;5050789;28;20408;-36
2023/01/03 10:53:58;;;;;;;2.03;1.60;;;10.60;99.90;;;;;;5049899;28;20423;-40
2023/01/03 10:56:25;;;;;;;2.37;1.93;;;10.60;99.90;;;;;;5050524;28;20416;-39
2023/01/03 10:59:30;;;;;;;2.47;1.90;;;10.60;99.90;;;;;;5050770;28;20413;-39
2023/01/03 11:02:07;;;;;;;3.10;2.13;;;10.60;99.90;;;;;;5027787;28;20425;-38
2023/01/03 11:04:34;;;;;;;3.77;1.90;;;10.70;99.90;;;;;;5026598;28;21064;-40
2023/01/03 11:07:11;;;;;;;8.20;2.40;;;10.70;99.90;;;;;;5038792;28;20424;-38
2023/01/03 11:09:48;;;;;;;4.10;2.00;;;10.80;99.90;;;;;;5050203;28;20802;-40
2023/01/03 11:12:41;;;;;;;2.60;2.00;;;10.80;99.90;;;;;;5050373;28;21244;-40
2023/01/03 11:15:15;;;;;;;3.27;2.00;;;10.80;99.90;;;;;;5048003;28;21073;-37
2023/01/03 11:18:09;;;;;;;2.90;1.80;;;10.70;99.90;;;;;;5030416;28;20520;-40
2023/01/03 11:20:58;;;;;;;2.93;1.83;;;10.60;99.90;;;;;;5040958;28;20415;-39
2023/01/03 11:23:42;;;;;;;6.20;2.60;;;10.60;99.90;;;;;;5048731;28;20447;-37
2023/01/03 11:26:37;;;;;;;2.10;1.90;;;10.50;99.90;;;;;;5048395;28;20776;-40
2023/01/03 11:29:22;;;;;;;3.83;2.17;;;10.50;99.90;;;;;;5049281;28;20459;-36
2023/01/03 11:32:20;;;;;;;4.60;2.50;;;10.50;99.90;;;;;;5049741;28;20416;-38
2023/01/03 11:35:23;;;;;;;3.87;1.93;;;10.50;99.90;;;;;;5041438;28;20425;-37
2023/01/03 11:38:01;;;;;;;5.30;2.00;;;10.50;99.90;;;;;;5049819;28;20411;-40
2023/01/03 11:40:44;;;;;;;4.80;2.00;;;10.50;99.90;;;;;;5050119;28;20400;-39
2023/01/03 11:43:13;;;;;;;2.77;2.33;;;10.40;99.90;;;;;;5049852;28;20474;-39
2023/01/03 11:46:13;;;;;;;3.63;1.87;;;10.40;99.90;;;;;;5047972;28;20788;-38
2023/01/03 11:49:03;;;;;;;2.50;2.30;;;10.40;99.90;;;;;;5038993;28;20464;-39
2023/01/03 11:51:50;;;;;;;3.40;2.27;;;10.30;99.90;;;;;;5049906;28;20400;-35
2023/01/03 11:54:55;;;;;;;3.40;1.83;;;10.30;99.90;;;;;;5047800;28;20427;-34
2023/01/03 11:57:46;;;;;;;6.43;2.27;;;10.30;99.90;;;;;;5049811;28;20433;-39
2023/01/03 12:00:31;;;;;;;4.13;2.50;;;10.30;99.90;;;;;;5049685;28;20982;-38
2023/01/03 12:03:06;;;;;;;4.50;2.03;;;10.30;99.90;;;;;;5049416;28;20404;-39
2023/01/03 12:05:50;;;;;;;5.40;2.23;;;10.20;99.90;;;;;;5047468;28;20489;-37
2023/01/03 12:08:39;;;;;;;6.87;2.17;;;10.30;99.90;;;;;;5049793;28;20499;-40
2023/01/03 12:11:36;;;;;;;3.90;2.50;;;10.20;99.90;;;;;;5048213;28;20430;-40
2023/01/03 12:14:20;;;;;;;4.13;2.57;;;10.20;99.90;;;;;;5049182;28;20820;-39
2023/01/03 12:16:49;;;;;;;4.53;2.63;;;10.20;99.90;;;;;;5049560;28;20961;-38
2023/01/03 12:19:57;;;;;;;2.60;2.00;;;10.20;99.90;;;;;;5049604;28;20408;-36
2023/01/03 12:22:42;;;;;;;2.50;1.97;;;10.20;99.90;;;;;;4987550;28;20425;-37
2023/01/03 12:25:13;;;;;;;6.43;2.90;;;10.20;99.90;;;;;;4986912;28;20422;-38
2023/01/03 12:27:46;;;;;;;4.90;2.33;;;10.20;99.90;;;;;;5019898;28;20534;-40
2023/01/03 12:30:33;;;;;;;5.17;2.53;;;10.20;99.90;;;;;;5049112;28;20467;-37
2023/01/03 12:33:24;;;;;;;3.37;2.20;;;10.20;99.90;;;;;;5049153;28;20416;-37
2023/01/03 12:36:06;;;;;;;6.50;2.70;;;10.40;99.90;;;;;;5047290;28;20439;-37
2023/01/03 12:38:37;;;;;;;3.37;3.07;;;10.50;99.90;;;;;;5049961;28;20462;-36
2023/01/03 12:41:19;;;;;;;4.33;2.97;;;10.60;99.90;;;;;;5046902;28;20439;-39
2023/01/03 12:43:56;;;;;;;4.93;3.00;;;10.60;99.90;;;;;;5040407;28;20404;-34
2023/01/03 12:46:28;;;;;;;7.13;2.87;;;10.60;99.90;;;;;;5032932;28;20416;-40
2023/01/03 12:49:32;;;;;;;2.83;2.23;;;10.70;99.90;;;;;;5043987;28;20862;-38
2023/01/03 12:51:58;;;;;;;3.00;2.20;;;10.70;99.90;;;;;;5043400;28;20531;-38
2023/01/03 12:54:35;;;;;;;4.60;2.43;;;10.60;99.90;;;;;;5051534;28;20865;-37
2023/01/03 12:57:22;;;;;;;5.40;2.73;;;10.70;99.90;;;;;;5052408;28;20169;-34
2023/01/03 13:00:01;;;;;;;3.17;1.60;;;10.70;99.90;;;;;;5052607;28;20933;-38
2023/01/03 13:02:59;;;;;;;3.33;1.93;;;10.70;99.90;;;;;;5050629;28;20433;-38
2023/01/03 13:05:49;;;;;;;6.07;1.93;;;10.70;99.90;;;;;;5030101;28;20441;-38
2023/01/03 13:08:30;;;;;;;3.13;1.43;;;10.70;99.90;;;;;;5035640;28;20412;-38
2023/01/03 13:10:59;;;;;;;3.43;1.43;;;10.70;99.90;;;;;;5050132;28;20424;-32
2023/01/03 13:13:25;;;;;;;2.77;1.30;;;10.70;99.90;;;;;;5052419;28;20404;-36
2023/01/03 13:15:53;;;;;;;5.03;1.93;;;10.70;99.90;;;;;;5051212;28;21350;-40
2023/01/03 13:18:22;;;;;;;2.17;1.60;;;10.70;99.90;;;;;;5050838;28;20938;-39
2023/01/03 13:20:57;;;;;;;2.53;1.23;;;10.80;99.90;;;;;;5051992;28;21087;-32
2023/01/03 13:23:44;;;;;;;2.10;0.97;;;10.70;99.90;;;;;;5050855;28;20419;-38
2023/01/03 13:26:20;;;;;;;2.87;1.13;;;10.70;99.90;;;;;;5051358;28;20481;-34
2023/01/03 13:28:46;;;;;;;3.00;1.50;;;10.70;99.90;;;;;;5051894;28;20458;-33
2023/01/03 13:31:15;;;;;;;3.63;1.43;;;10.70;99.90;;;;;;5051992;28;20412;-37
2023/01/03 13:33:47;;;;;;;1.97;1.33;;;10.60;99.90;;;;;;5051773;28;20656;-40
2023/01/03 13:36:14;;;;;;;2.90;1.30;;;10.60;99.90;;;;;;5051767;28;20435;-40
2023/01/03 13:38:41;;;;;;;1.87;1.00;;;10.60;99.90;;;;;;5051389;28;20460;-38
2023/01/03 13:41:34;;;;;;;4.50;1.20;;;10.60;99.90;;;;;;5051873;28;20856;-38
2023/01/03 13:44:07;;;;;;;3.17;1.10;;;10.60;99.90;;;;;;5042537;28;20458;-36
2023/01/03 13:46:33;;;;;;;4.03;1.17;;;10.60;99.90;;;;;;5044564;28;20496;-39
2023/01/03 13:49:04;;;;;;;1.63;1.00;;;10.50;99.90;;;;;;5031407;28;20507;-38
2023/01/03 13:51:48;;;;;;;4.90;1.20;;;10.50;99.90;;;;;;5047413;28;20478;-39
2023/01/03 13:54:16;;;;;;;2.00;1.17;;;10.60;99.90;;;;;;5048138;28;20432;-35
2023/01/03 13:56:42;;;;;;;2.03;1.00;;;10.50;99.90;;;;;;5051188;28;20412;-37
2023/01/03 13:59:34;;;;;;;1.70;1.10;;;10.50;99.90;;;;;;5050862;28;21097;-38
2023/01/03 14:02:08;;;;;;;2.17;1.20;;;10.50;99.90;;;;;;5049798;28;20184;-39
2023/01/03 14:05:01;;;;;;;3.53;1.37;;;10.50;99.90;;;;;;5050595;28;20529;-34
2023/01/03 14:07:56;;;;;;;5.77;1.30;;;10.50;99.90;;;;;;5042325;28;20428;-38
2023/01/03 14:10:50;;;;;;;2.33;1.00;;;10.50;99.90;;;;;;5045748;28;20468;-39
2023/01/03 14:13:40;;;;;;;2.50;1.13;;;10.50;99.90;;;;;;5051116;28;20416;-38
2023/01/03 14:16:28;;;;;;;4.47;1.27;;;10.40;99.90;;;;;;5050318;28;20547;-40
2023/01/03 14:19:05;;;;;;;2.40;1.40;;;10.50;99.90;;;;;;5033722;28;20471;-40
2023/01/03 14:21:49;;;;;;;1.83;0.93;;;10.50;99.90;;;;;;5049664;28;20466;-40
2023/01/03 14:24:20;;;;;;;3.53;1.40;;;10.40;99.90;;;;;;5050312;28;20518;-34
2023/01/03 14:26:47;;;;;;;4.70;1.60;;;10.50;99.90;;;;;;5047433;28;20996;-38